Norfolk, VA (23515)

6:57 PM EDT on September 30, 2014 (GMT -0400)
Algonquin Park | Change Station
CLOSE
Current Station
Personal Weather Station
Location: Norfolk, VA
Elevation: 19 ft
Nearby Weather Stations

Elev 19 ft 36.91 °N, 76.29 °W | Updated 6 minutes ago

Scattered Clouds
Scattered Clouds
70.0 °F
Feels Like 70.0 °F
N
0.0
Wind Variable Wind from NE

Today
High -- | Low -- °F
--% Chance of Precip.
Yesterday
High -- | Low -- °F
Precip. -- in
6:59 AM 6:50 PM
Waxing Crescent, 41% visible
Pressure 29.88 in
Visibility 10.0 miles
Clouds Scattered Clouds 2000 ft
Dew Point 66 °F
Humidity 88%
Rainfall 0.03 in
Snow Depth Not available.
UV 0 out of 12
Pollen 2.70 out of 12
Ozone Good
PM2.5 Good
Flu Activity Not available.
METAR KNGU 302159Z 07008KT 10SM SCT020 23/18 A2988 RMK AO2 SLP118 T02280178

More Conditions Fewer Conditions

Pressure 29.88 in
Visibility 10.0 miles
Clouds Scattered Clouds 2000 ft
Dew Point 66 °F
Humidity 88%
Rainfall 0.03 in
Snow Depth Not available.
UV 0 out of 12
Pollen 2.70 out of 12
Ozone Good
PM2.5 Good
Flu Activity Not available.
METAR KNGU 302159Z 07008KT 10SM SCT020 23/18 A2988 RMK AO2 SLP118 T02280178

More Conditions Fewer Conditions

10-Day Weather Forecast

Almanac

Astronomy

Sep. 30, 2014 Rise Set
Actual Time 6:59 AM EDT 6:50 PM EDT
Civil Twilight 6:33 AM EDT 7:15 PM EDT
Nautical Twilight 6:03 AM EDT 7:45 PM EDT
Astronomical Twilight 5:33 AM EDT 8:16 PM EDT
Moon 12:59 PM EDT 11:24 PM EDT
Length of Visible Light 12h 42m
Length of Day
11h 50m
Tomorrow will be 2m 21s shorter.
Waxing Crescent, 41% of the Moon is Illuminated
Today
Waxing Crescent
Oct 1
First Quarter
Oct 8
Full
Oct 15
Last Quarter
Oct 23
New

Today's Extremes

State Highs State Lows

Community

WunderPhotos

Upload Photos

1,757,767 photos uploaded!

Nearby

Air Quality

  Air Quality AQ Index Pollutant
Yesterday Good
PM2.5
Yesterday Good
OZONE
Current Good
OZONE
Current Good
PM2.5
Tuesday Good
PM2.5
Wednesday Good
PM2.5

Snow Depth

Station Depth Elevation
No new snow has been reported.

Earthquake Activity

City Distance Mag. Time & Date
No recent earthquake activity has been reported nearby.
Minimum magnitude displayed is 2.5.

Coastal Water Temperatures

Place Temperature
No Stations Reporting

Nearby Weather Stations